createdAt,value
2018-12-22T04:01:03.712Z,9.39
2018-12-22T04:06:03.392Z,9.39
2018-12-22T04:11:03.393Z,9.29
2018-12-22T04:16:03.696Z,9.29
2018-12-22T04:21:03.199Z,9.29
2018-12-22T04:26:03.454Z,9.29
2018-12-22T04:31:03.725Z,9.29
2018-12-22T04:36:03.295Z,9.29
2018-12-22T04:41:03.730Z,9.29
2018-12-22T04:46:03.053Z,9.29
2018-12-22T04:51:03.527Z,9.29
2018-12-22T04:56:03.737Z,9.29
2018-12-22T05:01:03.048Z,9.29
2018-12-22T05:06:03.502Z,9.29
2018-12-22T05:11:03.071Z,9.29
2018-12-22T05:16:03.393Z,9.29
2018-12-22T05:21:03.885Z,9.29
2018-12-22T05:26:03.316Z,9.39
2018-12-22T05:31:03.621Z,9.39
2018-12-22T05:36:03.112Z,9.39
2018-12-22T05:41:03.665Z,9.39
2018-12-22T05:46:02.973Z,9.39
2018-12-22T05:51:03.420Z,9.39
2018-12-22T05:56:03.627Z,9.39
2018-12-22T06:01:02.995Z,9.39
2018-12-22T06:06:03.419Z,9.39
2018-12-22T06:11:02.970Z,9.39
2018-12-22T06:16:03.242Z,9.39
2018-12-22T06:21:03.787Z,9.39
2018-12-22T06:26:02.998Z,9.39
2018-12-22T06:31:03.335Z,9.39
2018-12-22T06:36:04.192Z,9.39
2018-12-22T06:41:03.693Z,9.39
2018-12-22T06:46:03.630Z,9.49
2018-12-22T06:51:03.686Z,9.49
2018-12-22T06:56:03.276Z,9.49
2018-12-22T07:01:03.579Z,9.39
2018-12-22T07:06:03.995Z,9.39
2018-12-22T07:11:03.571Z,9.39
2018-12-22T07:16:04.360Z,9.39
2018-12-22T07:21:03.451Z,9.39
2018-12-22T07:26:04.023Z,9.39
2018-12-22T07:31:03.909Z,9.19
2018-12-22T07:36:03.344Z,9.19
2018-12-22T07:41:04.937Z,9.19
2018-12-22T07:46:03.206Z,9.09
2018-12-22T07:51:03.711Z,8.99
2018-12-22T07:56:04.351Z,8.99
2018-12-22T15:16:03.571Z,8.29
2018-12-22T15:21:03.618Z,8.29
2018-12-22T15:26:03.863Z,8.29
2018-12-22T15:31:03.205Z,8.29
2018-12-22T15:36:03.594Z,8.29
2018-12-22T15:41:03.604Z,8.29
2018-12-22T15:46:03.852Z,8.29
2018-12-22T15:51:03.383Z,8.29
2018-12-22T15:56:03.600Z,8.29
2018-12-22T16:01:03.843Z,8.29
2018-12-22T16:06:03.363Z,8.29
2018-12-22T16:11:03.920Z,8.29
2018-12-22T16:16:03.187Z,8.29
2018-12-22T16:21:03.747Z,8.29
2018-12-22T16:26:03.933Z,8.09
2018-12-22T16:31:03.226Z,8.09
2018-12-22T16:36:03.663Z,8.09
2018-12-22T16:41:03.234Z,8.09
2018-12-22T16:46:03.525Z,8.19
2018-12-22T16:51:04.008Z,8.19
2018-12-22T16:56:03.226Z,8.19
2018-12-22T17:01:03.541Z,8.19
2018-12-22T17:06:04.004Z,8.19
2018-12-22T17:11:03.573Z,8.19
2018-12-22T17:16:03.983Z,8.19
2018-12-22T17:21:03.358Z,8.19
2018-12-22T17:26:03.573Z,8.29
2018-12-22T17:31:03.897Z,8.29
2018-12-22T17:36:03.392Z,8.29
2018-12-22T17:41:03.994Z,8.29
2018-12-22T17:46:03.236Z,8.29
2018-12-22T17:51:03.820Z,8.29
2018-12-22T17:56:03.914Z,8.29
2018-12-22T18:01:03.184Z,7.99
2018-12-22T18:06:03.651Z,8.09
2018-12-22T18:11:03.235Z,8.09
2018-12-22T18:16:03.524Z,8.09
2018-12-22T18:21:04.120Z,8.09
2018-12-22T18:26:03.273Z,8.09
2018-12-22T18:31:03.774Z,8.09
2018-12-22T18:36:03.962Z,8.19
2018-12-22T18:41:03.533Z,8.19
2018-12-22T18:46:03.923Z,8.19
2018-12-22T18:51:03.306Z,8.19
2018-12-22T18:56:03.496Z,8.19
2018-12-22T19:01:03.784Z,8.19
2018-12-22T19:06:03.239Z,8.19
2018-12-22T19:11:03.847Z,8.19
2018-12-22T19:16:03.110Z,8.19
2018-12-22T19:21:03.632Z,8.19
2018-12-22T19:26:03.834Z,8.19
2018-12-22T19:31:03.125Z,7.89
2018-12-22T19:36:03.987Z,7.89
2018-12-22T19:41:03.162Z,7.89
2018-12-22T19:46:03.465Z,7.89
2018-12-22T19:51:03.967Z,7.89
2018-12-22T19:56:03.186Z,7.89
2018-12-22T20:01:04.102Z,7.89
2018-12-22T20:06:03.997Z,7.89
2018-12-22T20:11:03.558Z,7.89
2018-12-22T20:16:09.947Z,7.99
2018-12-22T20:21:03.387Z,7.99
2018-12-22T20:26:03.603Z,7.99
2018-12-22T20:31:03.869Z,7.99
2018-12-22T20:36:03.371Z,8.09
2018-12-22T20:41:02.935Z,8.09
2018-12-22T20:46:03.310Z,8.09
2018-12-22T20:51:03.751Z,7.99
2018-12-22T20:56:02.941Z,7.99
2018-12-22T21:01:03.261Z,7.99
2018-12-22T21:06:03.698Z,7.99
2018-12-22T21:11:03.337Z,7.99
2018-12-22T21:16:03.634Z,7.79
2018-12-22T21:21:03.187Z,7.79
2018-12-22T21:26:03.347Z,7.79
2018-12-22T21:31:03.637Z,7.79
2018-12-22T21:36:03.102Z,7.89
2018-12-22T21:41:03.722Z,7.89
2018-12-22T21:46:03.013Z,7.89
2018-12-22T21:51:03.506Z,7.89
2018-12-22T21:56:03.737Z,7.79
2018-12-22T22:01:03.126Z,7.79
2018-12-22T22:06:03.462Z,7.79
2018-12-22T22:11:03.097Z,7.79
2018-12-22T22:16:03.371Z,7.79
2018-12-22T22:21:03.876Z,7.79
2018-12-22T22:26:03.076Z,7.79
2018-12-22T22:31:03.382Z,7.09
2018-12-22T22:36:03.824Z,7.09
2018-12-22T22:41:03.411Z,7.09
